Koksijde Air Base

EBFN · West-Vlaanderen, Flanders, 比利时

罗盘
风向 的 风向 310° Koksijde Air Base 11/29
风: 4 kt, 2 beaufort

4 kt

2 kt
改变
0 ft 5.000 10.000 15.000 20.000
Cloud Cloud
FEW 900
Cloud Cloud Cloud Cloud
SCT 11.000
Cloud Cloud Cloud Cloud Cloud Cloud
BKN 16.000
METAR EBFN 211155Z 31004KT 9999 FEW009 SCT110 BKN160 16/10 Q1014 BLU BLU

METAR Koksijde Air Base - EBFN

Koksijde Air Base是,比利时中的中型机场。 该机场位于纬度51,09025和经度2,65294。 该机场有2条跑道: 11/29 和 2/20. 本场的ICAO机场代码为EBFN。 机场在Bruxelles FIR中。

该航空气象观测是针对Koksijde Air Base在2024年6月21日 13:55, 当地时间进行的。

机场观察

风向为310°,速度为4 kt。

可见度为10 km 或者更多。

有几云在900 ft的高度, 疏云,零星散落的云朵在11.000 ft的高度 和 碎云在16.000 ft的高度。 破损或更高的上限为16.000 ft。

温度和风寒是16 °C。 露点为10 °C,相对湿度为68%。 海平面上的气压为1014 hPa (QNH)。

白天

今天,太阳从05:34升起,在22:08降落。 这适用于Koksijde Air Base,世界夏令时可能有所不同。 当地时间与世界标准时间之间的时差为+2 小时。 夏令时目前正在进行中。

公司介绍

在这个机场,你可以找到飞行学校。 本场上唯一已知的公司是West Aviation Club。

体会

到Vliegles.nl去找飞行课程,跳伞和其他飞行体验。 浏览页面,了解Koksijde Air Base附近所有可用的活动。 你也可以使用搜索功能来寻找你所在地附近的特定飞行课程、跳伞或其他飞行体验。

跑道

Id 标题 侧风 逆风 侧风 %
11/29 107°-287° 2 kt 4 kt 39 %
2/20 016°-196° 4 kt 2 kt 91 %

逆风成分最大的方向会被突出显示,并用于横风计算。 这并不一定意味着这个方向在使用。

乌云

900 ft FEW 几云
11.000 ft SCT 疏云,零星散落的云朵
16.000 ft BKN 碎云

温度 & 天气

温度 16 °C
露点 10 °C
相对湿度 68%
Kp-index 0 (0-9)

白天

日出
05:34
中午
13:51
日落
22:08 (8:02)

小工具

你想在你的网站上有一个关于Koksijde Air Base的当前航空天气(METAR)的小部件吗?

显示HTML代码
报告变更